createdAt,value
2018-05-13T00:00:16.659Z,96.7
2018-05-13T00:01:25.570Z,96.42
2018-05-13T00:02:34.438Z,96.51
2018-05-13T00:03:43.303Z,96.7
2018-05-13T00:04:52.161Z,96.7
2018-05-13T00:06:01.300Z,96.61
2018-05-13T00:07:10.511Z,97.38
2018-05-13T00:08:19.382Z,97.47
2018-05-13T00:09:28.808Z,97.56
2018-05-13T00:10:37.953Z,97.66
2018-05-13T00:11:46.814Z,96.8
2018-05-13T00:12:56.028Z,97.47
2018-05-13T00:14:04.887Z,96.89
2018-05-13T00:15:14.315Z,97.56
2018-05-13T00:16:23.186Z,97.47
2018-05-13T00:17:32.038Z,97.56
2018-05-13T00:18:40.899Z,97.09
2018-05-13T00:19:50.038Z,97.76
2018-05-13T00:20:58.903Z,97.76
2018-05-13T00:22:07.768Z,97.47
2018-05-13T00:23:16.903Z,97.18
2018-05-13T00:24:25.914Z,97.47
2018-05-13T00:25:34.775Z,97.28
2018-05-13T00:26:43.636Z,97.85
2018-05-13T00:27:52.498Z,97.14
2018-05-13T00:29:01.359Z,97.28
2018-05-13T00:30:10.499Z,97.56
2018-05-13T00:31:19.656Z,97.56
2018-05-13T00:32:28.513Z,97.71
2018-05-13T00:33:37.934Z,97.23
2018-05-13T00:34:46.794Z,97.76
2018-05-13T00:35:55.807Z,97.56
2018-05-13T00:37:04.668Z,97.8
2018-05-13T00:38:13.531Z,97.8
2018-05-13T00:39:22.394Z,97.14
2018-05-13T00:40:31.538Z,97.52
2018-05-13T00:41:40.446Z,97.52
2018-05-13T00:42:49.310Z,97.61
2018-05-13T00:43:58.173Z,97.61
2018-05-13T00:45:07.036Z,97.8
2018-05-13T00:46:15.902Z,97.8
2018-05-13T00:47:25.421Z,97.52
2018-05-13T00:48:34.284Z,97.42
2018-05-13T00:49:43.142Z,97.14
2018-05-13T00:50:52.005Z,97.8
2018-05-13T00:52:00.865Z,97.9
2018-05-13T00:53:09.876Z,97.52
2018-05-13T00:54:18.737Z,97.23
2018-05-13T00:55:27.877Z,97.42
2018-05-13T00:56:36.739Z,97.8
2018-05-13T00:57:45.601Z,97.14
2018-05-13T00:58:54.735Z,97.9
2018-05-13T01:00:03.597Z,97.33
2018-05-13T01:01:12.462Z,97.23
2018-05-13T01:02:21.604Z,97.42
2018-05-13T01:03:30.459Z,97.42
2018-05-13T01:04:39.423Z,97.61
2018-05-13T01:05:48.283Z,97.23
2018-05-13T01:06:57.433Z,97.9
2018-05-13T01:08:06.853Z,97.04
2018-05-13T01:09:15.719Z,97.9
2018-05-13T01:10:24.679Z,97.52
2018-05-13T01:11:33.820Z,97.71
2018-05-13T01:12:42.680Z,98
2018-05-13T01:13:51.542Z,97.61
2018-05-13T01:15:00.402Z,96.84
2018-05-13T01:16:09.364Z,96.94
2018-05-13T01:17:18.502Z,96.47
2018-05-13T01:18:27.360Z,97.04
2018-05-13T01:19:36.504Z,97.04
2018-05-13T01:20:45.640Z,96.66
2018-05-13T01:21:54.555Z,96.75
2018-05-13T01:23:03.416Z,97.33
2018-05-13T01:24:12.282Z,97.71
2018-05-13T01:25:21.140Z,97.9
2018-05-13T01:26:30.004Z,97.33
2018-05-13T01:27:38.966Z,97.9
2018-05-13T01:28:47.826Z,96.56
2018-05-13T01:29:56.689Z,97.42
2018-05-13T01:31:05.829Z,97.71
2018-05-13T01:32:14.688Z,97.8
2018-05-13T01:33:23.549Z,97.52
2018-05-13T01:34:32.410Z,97.33
2018-05-13T01:35:41.271Z,97.56
2018-05-13T01:36:50.133Z,97.38
2018-05-13T01:37:58.994Z,96.51
2018-05-13T01:39:07.955Z,96.56
2018-05-13T01:40:17.095Z,96.61
2018-05-13T01:41:25.958Z,96.37
2018-05-13T01:42:34.821Z,96.56
2018-05-13T01:43:43.681Z,97.33
2018-05-13T01:44:52.541Z,97.14
2018-05-13T01:46:01.689Z,97.28
2018-05-13T01:47:10.556Z,96.51
2018-05-13T01:48:19.407Z,96.56
2018-05-13T01:49:28.270Z,96.75
2018-05-13T01:50:37.229Z,97.23
2018-05-13T01:51:46.366Z,97.28
2018-05-13T01:52:55.228Z,97.47
2018-05-13T01:54:04.089Z,97.09
2018-05-13T01:55:12.950Z,97.47
2018-05-13T01:56:21.957Z,97.56
2018-05-13T01:57:30.819Z,97.47
2018-05-13T01:58:39.684Z,96.89
2018-05-13T01:59:48.545Z,97.56
2018-05-13T02:00:57.408Z,97.85
2018-05-13T02:02:06.268Z,97.85
2018-05-13T02:03:15.405Z,97.28
2018-05-13T02:04:24.264Z,97.47
2018-05-13T02:05:33.126Z,97.28
2018-05-13T02:06:41.985Z,97.47
2018-05-13T02:07:51.122Z,97.38
2018-05-13T02:08:59.984Z,96.61
2018-05-13T02:10:08.843Z,96.51
2018-05-13T02:11:17.989Z,96.8
2018-05-13T02:12:27.123Z,96.51
2018-05-13T02:13:36.135Z,96.51
2018-05-13T02:14:44.998Z,96.89
2018-05-13T02:15:53.857Z,96.51
2018-05-13T02:17:03.003Z,97.18
2018-05-13T02:18:11.858Z,96.42
2018-05-13T02:19:21.049Z,96.42
2018-05-13T02:20:29.910Z,96.13
2018-05-13T02:21:39.070Z,96.89
2018-05-13T02:22:47.928Z,97.18
2018-05-13T02:23:57.071Z,96.8
2018-05-13T02:25:05.936Z,96.32
2018-05-13T02:26:14.797Z,96.22
2018-05-13T02:27:23.675Z,96.89
2018-05-13T02:28:32.524Z,95.27
2018-05-13T02:29:41.661Z,95.84
2018-05-13T02:30:50.681Z,95.94
2018-05-13T02:31:59.820Z,95.84
2018-05-13T02:33:08.962Z,95.94
2018-05-13T02:34:18.379Z,96.32
2018-05-13T02:35:27.528Z,96.03
2018-05-13T02:36:36.760Z,95.65
2018-05-13T02:37:46.179Z,96.61
2018-05-13T02:38:55.039Z,96.22
2018-05-13T02:40:04.467Z,96.61
2018-05-13T02:41:13.325Z,96.03
2018-05-13T02:42:22.639Z,96.7
2018-05-13T02:43:32.353Z,96.51
2018-05-13T02:44:41.782Z,96.03
2018-05-13T02:45:50.924Z,95.84
2018-05-13T02:46:59.780Z,96.03
2018-05-13T02:48:08.790Z,95.36
2018-05-13T02:49:17.932Z,96.22
2018-05-13T02:50:27.355Z,95.94
2018-05-13T02:51:36.501Z,95.36
2018-05-13T02:52:45.652Z,96.03
2018-05-13T02:53:55.304Z,95.56
2018-05-13T02:55:04.423Z,95.84
2018-05-13T02:56:13.283Z,96.22
2018-05-13T02:57:22.148Z,96.18
2018-05-13T02:58:31.284Z,95.79
2018-05-13T02:59:40.250Z,95.7
2018-05-13T03:00:49.390Z,96.18
2018-05-13T03:01:58.260Z,95.41
2018-05-13T03:03:07.680Z,95.51
2018-05-13T03:04:17.105Z,95.31
2018-05-13T03:05:26.529Z,95.41
2018-05-13T03:06:35.752Z,95.03
2018-05-13T03:07:44.618Z,95.12
2018-05-13T03:08:54.034Z,94.84
2018-05-13T03:10:03.175Z,95.03
2018-05-13T03:11:12.316Z,94.26
2018-05-13T03:12:21.454Z,94.17
2018-05-13T03:13:30.597Z,94.36
2018-05-13T03:14:39.733Z,94.55
2018-05-13T03:15:48.877Z,93.88
2018-05-13T03:16:58.099Z,93.88
2018-05-13T03:18:06.952Z,94.45
2018-05-13T03:19:16.097Z,94.55
2018-05-13T03:20:25.238Z,94.55
2018-05-13T03:21:34.147Z,93.59
2018-05-13T03:22:43.435Z,93.5
2018-05-13T03:23:52.293Z,94.65
2018-05-13T03:25:01.152Z,94.26
2018-05-13T03:26:10.014Z,94.45
2018-05-13T03:27:18.873Z,94.36
2018-05-13T03:28:27.734Z,93.88
2018-05-13T03:29:36.595Z,93.4
2018-05-13T03:30:45.454Z,93.79
2018-05-13T03:31:54.599Z,93.59
2018-05-13T03:33:03.744Z,93.4
2018-05-13T03:34:12.852Z,93.21
2018-05-13T03:35:21.712Z,93.3
2018-05-13T03:36:31.130Z,93.02
2018-05-13T03:37:39.988Z,93.79
2018-05-13T03:38:48.850Z,93.79
2018-05-13T03:39:58.340Z,93.69
2018-05-13T03:41:07.201Z,93.12
2018-05-13T03:42:16.061Z,92.92
2018-05-13T03:43:25.208Z,93.4
2018-05-13T03:44:34.070Z,93.21
2018-05-13T03:45:42.981Z,93.3
2018-05-13T03:46:52.118Z,93.21
2018-05-13T03:48:00.978Z,92.73
2018-05-13T03:49:09.839Z,92.44
2018-05-13T03:50:18.700Z,92.63
2018-05-13T03:51:27.663Z,92.63
2018-05-13T03:52:36.522Z,92.44
2018-05-13T03:53:45.663Z,92.54
2018-05-13T03:54:54.521Z,92.06
2018-05-13T03:56:03.382Z,92.44
2018-05-13T03:57:12.398Z,92.25
2018-05-13T03:58:21.252Z,92.35
2018-05-13T03:59:30.115Z,92.54
2018-05-13T04:00:39.256Z,92.44
2018-05-13T04:01:48.118Z,92.35
2018-05-13T04:02:56.977Z,92.25
2018-05-13T04:04:05.840Z,92.25
2018-05-13T04:05:14.702Z,92.25
2018-05-13T04:06:23.565Z,91.49
2018-05-13T04:07:32.425Z,91.97
2018-05-13T04:08:41.636Z,92.06
2018-05-13T04:09:50.497Z,91.3
2018-05-13T04:10:59.357Z,91.2
2018-05-13T04:12:08.217Z,91.3
2018-05-13T04:13:17.082Z,92.06
2018-05-13T04:14:25.941Z,91.49
2018-05-13T04:15:34.801Z,91.87
2018-05-13T04:16:44.222Z,92.16
2018-05-13T04:17:53.081Z,91.77
2018-05-13T04:19:01.956Z,91.39
2018-05-13T04:20:10.954Z,91.49
2018-05-13T04:21:19.819Z,91.2
2018-05-13T04:22:28.955Z,90.91
2018-05-13T04:23:37.818Z,91.39
2018-05-13T04:24:46.964Z,90.91
2018-05-13T04:25:55.936Z,91.3
2018-05-13T04:27:04.797Z,91.01
2018-05-13T04:28:13.660Z,90.24
2018-05-13T04:29:22.837Z,89.76
2018-05-13T04:30:31.699Z,90.34
2018-05-13T04:31:41.185Z,90.63
2018-05-13T04:32:50.053Z,90.72
2018-05-13T04:33:59.193Z,91.11
2018-05-13T04:35:08.054Z,91.01
2018-05-13T04:36:16.917Z,90.82
2018-05-13T04:37:26.063Z,90.72
2018-05-13T04:38:34.927Z,90.91
2018-05-13T04:39:44.064Z,90.53
2018-05-13T04:40:53.201Z,90.34
2018-05-13T04:42:02.088Z,91.01
2018-05-13T04:43:11.854Z,90.44
2018-05-13T04:44:20.713Z,90.34
2018-05-13T04:45:29.852Z,90.91
2018-05-13T04:46:38.712Z,90.82
2018-05-13T04:47:47.573Z,90.72
2018-05-13T04:48:56.535Z,90.91
2018-05-13T04:50:05.400Z,90.44
2018-05-13T04:51:14.263Z,90.44
2018-05-13T04:52:23.123Z,90.34
2018-05-13T04:53:31.987Z,90.63
2018-05-13T04:54:40.995Z,90.53
2018-05-13T04:55:49.857Z,90.34
2018-05-13T04:56:58.719Z,90.39
2018-05-13T04:58:08.148Z,90.58
2018-05-13T04:59:17.007Z,90.34
2018-05-13T05:00:25.966Z,90.91
2018-05-13T05:01:34.834Z,90.63
2018-05-13T05:02:43.697Z,91.01
2018-05-13T05:03:52.832Z,90.24
2018-05-13T05:05:01.697Z,90.19
2018-05-13T05:06:10.713Z,89.81
2018-05-13T05:07:19.567Z,89.81
2018-05-13T05:08:28.431Z,90.19
2018-05-13T05:09:37.293Z,90
2018-05-13T05:10:46.719Z,90.19
2018-05-13T05:11:55.731Z,90.29
2018-05-13T05:13:04.885Z,90.09
2018-05-13T05:14:13.740Z,90.09
2018-05-13T05:15:22.881Z,89.9
2018-05-13T05:16:31.744Z,89.81
2018-05-13T05:17:40.884Z,89.52
2018-05-13T05:18:49.747Z,89.81
2018-05-13T05:19:59.165Z,89.9
2018-05-13T05:21:08.026Z,90.09
2018-05-13T05:22:16.891Z,89.72
2018-05-13T05:23:26.104Z,89.81
2018-05-13T05:24:34.965Z,89.9
2018-05-13T05:25:43.828Z,89.52
2018-05-13T05:26:52.690Z,89.9
2018-05-13T05:28:01.826Z,89.81
2018-05-13T05:29:10.848Z,90.23
2018-05-13T05:30:19.986Z,89.47
2018-05-13T05:31:29.129Z,90.14
2018-05-13T05:32:38.285Z,89.18
2018-05-13T05:33:47.148Z,89.47
2018-05-13T05:34:56.012Z,89.57
2018-05-13T05:36:04.872Z,89.18
2018-05-13T05:37:13.742Z,89.28
2018-05-13T05:38:22.885Z,89.37
2018-05-13T05:39:31.747Z,89.37
2018-05-13T05:40:41.059Z,89.37
2018-05-13T05:41:50.204Z,89.37
2018-05-13T05:42:59.625Z,89.28
2018-05-13T05:44:08.487Z,88.99
2018-05-13T05:45:17.350Z,89.47
2018-05-13T05:46:26.213Z,88.61
2018-05-13T05:47:35.073Z,89.04
2018-05-13T05:48:44.215Z,89.32
2018-05-13T05:49:53.081Z,89.09
2018-05-13T05:51:01.941Z,89.23
2018-05-13T05:52:10.800Z,89.04
2018-05-13T05:53:19.944Z,88.94
2018-05-13T05:54:29.103Z,89.13
2018-05-13T05:55:37.964Z,88.94
2018-05-13T05:56:46.824Z,88.75
2018-05-13T05:57:55.737Z,88.75
2018-05-13T05:59:04.598Z,88.84
2018-05-13T06:00:13.463Z,88.46
2018-05-13T06:01:22.322Z,88.65
2018-05-13T06:02:31.181Z,88.56
2018-05-13T06:03:40.674Z,88.56
2018-05-13T06:04:49.533Z,88.94
2018-05-13T06:05:58.681Z,88.37
2018-05-13T06:07:07.547Z,88.56
2018-05-13T06:08:16.412Z,88.56
2018-05-13T06:09:25.709Z,88.51
2018-05-13T06:10:34.570Z,88.79
2018-05-13T06:11:43.711Z,89.27
2018-05-13T06:12:52.572Z,88.31
2018-05-13T06:14:01.432Z,89.47
2018-05-13T06:15:10.342Z,88.41
2018-05-13T06:16:19.203Z,88.37
2018-05-13T06:17:28.065Z,88.51
2018-05-13T06:18:36.927Z,88.22
2018-05-13T06:19:46.158Z,88.79
2018-05-13T06:20:54.978Z,88.51
2018-05-13T06:22:03.837Z,88.31
2018-05-13T06:23:12.976Z,88.89
2018-05-13T06:24:21.838Z,88.51
2018-05-13T06:25:30.700Z,88.51
2018-05-13T06:26:39.613Z,88.31
2018-05-13T06:27:48.753Z,88.51
2018-05-13T06:28:58.173Z,88.6
2018-05-13T06:30:07.035Z,88.41
2018-05-13T06:31:16.182Z,88.45
2018-05-13T06:32:25.191Z,88.65
2018-05-13T06:33:34.053Z,88.26
2018-05-13T06:34:42.922Z,88.93
2018-05-13T06:35:52.060Z,88.55
2018-05-13T06:37:00.926Z,88.74
2018-05-13T06:38:10.415Z,88.74
2018-05-13T06:39:19.288Z,88.45
2018-05-13T06:40:28.427Z,88.45
2018-05-13T06:41:37.619Z,88.65
2018-05-13T06:42:46.487Z,88.65
2018-05-13T06:43:55.676Z,88.45
2018-05-13T06:45:04.813Z,88.65
2018-05-13T06:46:13.679Z,88.74
2018-05-13T06:47:22.533Z,88.93
2018-05-13T06:48:31.405Z,88.74
2018-05-13T06:49:40.310Z,88.65
2018-05-13T06:50:49.224Z,88.45
2018-05-13T06:51:58.660Z,88.49
2018-05-13T06:53:07.528Z,88.49
2018-05-13T06:54:16.389Z,88.98
2018-05-13T06:55:25.259Z,88.31
2018-05-13T06:56:34.121Z,88.49
2018-05-13T06:57:43.035Z,88.69
2018-05-13T06:58:51.895Z,88.49
2018-05-13T07:00:00.759Z,88.79
2018-05-13T07:01:09.972Z,88.59
2018-05-13T07:02:18.832Z,88.79
2018-05-13T07:03:27.694Z,88.69
2018-05-13T07:04:36.556Z,89.07
2018-05-13T07:05:45.417Z,88.79
2018-05-13T07:06:54.732Z,89.07
2018-05-13T07:08:03.595Z,88.88
2018-05-13T07:09:12.456Z,88.59
2018-05-13T07:10:21.379Z,89.5
2018-05-13T07:11:30.629Z,88.73
2018-05-13T07:12:39.590Z,89.31
2018-05-13T07:13:48.453Z,88.83
2018-05-13T07:14:57.314Z,89.5
2018-05-13T07:16:06.175Z,88.73
2018-05-13T07:17:15.075Z,89.4
2018-05-13T07:18:24.250Z,89.4
2018-05-13T07:19:33.109Z,89.31
2018-05-13T07:20:42.261Z,89.31
2018-05-13T07:21:51.125Z,89.69
2018-05-13T07:22:59.986Z,89.31
2018-05-13T07:24:08.850Z,89.6
2018-05-13T07:25:17.990Z,89.4
2018-05-13T07:26:26.848Z,89.5
2018-05-13T07:27:35.707Z,89.4
2018-05-13T07:28:44.572Z,89.5
2018-05-13T07:29:53.436Z,89.36
2018-05-13T07:31:02.298Z,89.54
2018-05-13T07:32:11.721Z,89.36
2018-05-13T07:33:20.583Z,89.36
2018-05-13T07:34:29.445Z,89.16
2018-05-13T07:35:38.459Z,89.45
2018-05-13T07:36:47.321Z,89.64
2018-05-13T07:37:56.183Z,89.54
2018-05-13T07:39:05.046Z,89.64
2018-05-13T07:40:13.909Z,89.45
2018-05-13T07:41:23.123Z,89.93
2018-05-13T07:42:31.986Z,89.59
2018-05-13T07:43:40.848Z,89.69
2018-05-13T07:44:49.717Z,90.36
2018-05-13T07:45:58.856Z,89.59
2018-05-13T07:47:08.049Z,90.36
2018-05-13T07:48:16.856Z,89.98
2018-05-13T07:49:25.719Z,89.98
2018-05-13T07:50:34.861Z,90.36
2018-05-13T07:51:43.719Z,89.98
2018-05-13T07:52:52.731Z,90.07
2018-05-13T07:54:01.595Z,89.78
2018-05-13T07:55:10.459Z,90.21
2018-05-13T07:56:19.324Z,90.41
2018-05-13T07:57:28.186Z,90.89
2018-05-13T07:58:37.199Z,90.21
2018-05-13T07:59:46.062Z,90.89
2018-05-13T08:00:55.204Z,91.08
2018-05-13T08:02:04.065Z,90.89
2018-05-13T08:03:12.929Z,90.79
2018-05-13T08:04:21.792Z,90.79
2018-05-13T08:05:30.655Z,90.5
2018-05-13T08:06:39.798Z,91.17
2018-05-13T08:07:48.663Z,90.35
2018-05-13T08:08:57.804Z,90.73
2018-05-13T08:10:07.119Z,90.26
2018-05-13T08:11:16.272Z,90.26
2018-05-13T08:12:25.689Z,90.73
2018-05-13T08:13:34.828Z,90.93
2018-05-13T08:14:43.691Z,90.93
2018-05-13T08:15:52.657Z,91.03
2018-05-13T08:17:01.799Z,91.03
2018-05-13T08:18:10.662Z,91.03
2018-05-13T08:19:19.527Z,91.41
2018-05-13T08:20:29.031Z,91.03
2018-05-13T08:21:38.771Z,90.93
2018-05-13T08:22:47.632Z,90.93
2018-05-13T08:23:56.499Z,90.83
2018-05-13T08:25:05.367Z,90.93
2018-05-13T08:26:14.230Z,91.36
2018-05-13T08:27:23.522Z,91.27
2018-05-13T08:28:32.662Z,91.17
2018-05-13T08:29:41.526Z,91.17
2018-05-13T08:30:50.388Z,91.27
2018-05-13T08:31:59.251Z,90.97
2018-05-13T08:33:08.116Z,91.36
2018-05-13T08:34:17.256Z,91.84
2018-05-13T08:35:26.395Z,91.21
2018-05-13T08:36:35.538Z,91.6
2018-05-13T08:37:44.402Z,91.69
2018-05-13T08:38:53.417Z,91.69
2018-05-13T08:40:02.283Z,91.6
2018-05-13T08:41:11.423Z,90.92
2018-05-13T08:42:20.287Z,91.69
2018-05-13T08:43:29.151Z,91.41
2018-05-13T08:44:38.365Z,91.69
2018-05-13T08:45:47.233Z,91.69
2018-05-13T08:46:56.096Z,91.12
2018-05-13T08:48:04.960Z,91.69
2018-05-13T08:49:13.828Z,91.6
2018-05-13T08:50:23.358Z,91.31
2018-05-13T08:51:32.222Z,91.74
2018-05-13T08:52:41.089Z,91.16
2018-05-13T08:53:50.234Z,90.97
2018-05-13T08:54:59.746Z,90.97
2018-05-13T08:56:08.764Z,91.45
2018-05-13T08:57:17.626Z,91.06
2018-05-13T08:58:26.487Z,91.69
2018-05-13T08:59:35.436Z,91.6
2018-05-13T09:00:44.227Z,91.6
2018-05-13T09:01:53.446Z,91.78
2018-05-13T09:03:02.307Z,91.98
2018-05-13T09:04:11.171Z,91.2
2018-05-13T09:05:20.035Z,91.11
2018-05-13T09:06:28.900Z,91.4
2018-05-13T09:07:37.815Z,91.3
2018-05-13T09:08:46.682Z,91.11
2018-05-13T09:09:55.827Z,91.3
2018-05-13T09:11:04.979Z,91.5
2018-05-13T09:12:13.842Z,91.3
2018-05-13T09:13:22.984Z,91.3
2018-05-13T09:14:31.849Z,90.72
2018-05-13T09:15:40.989Z,90.77
2018-05-13T09:16:49.856Z,90.87
2018-05-13T09:17:58.722Z,89.81
2018-05-13T09:19:07.938Z,90.48
2018-05-13T09:20:16.803Z,90.87
2018-05-13T09:21:25.670Z,91.54
2018-05-13T09:22:34.537Z,90.87
2018-05-13T09:23:43.402Z,90.77
2018-05-13T09:24:52.647Z,90.58
2018-05-13T09:26:01.790Z,91.54
2018-05-13T09:27:10.654Z,90.81
2018-05-13T09:28:20.074Z,90.91
2018-05-13T09:29:28.945Z,90.43
2018-05-13T09:30:37.919Z,90.43
2018-05-13T09:31:46.787Z,90.53
2018-05-13T09:32:55.962Z,90.43
2018-05-13T09:34:04.820Z,90.14
2018-05-13T09:35:13.687Z,90.33
2018-05-13T09:36:22.710Z,90.43
2018-05-13T09:37:31.851Z,90.72
2018-05-13T09:38:40.722Z,90.57
2018-05-13T09:39:49.583Z,90.43
2018-05-13T09:40:58.450Z,89.7
2018-05-13T09:42:07.918Z,90.19
2018-05-13T09:43:16.782Z,89.89
2018-05-13T09:44:25.649Z,89.51
2018-05-13T09:45:35.068Z,90.28
2018-05-13T09:46:44.591Z,89.03
2018-05-13T09:47:54.114Z,89.7
2018-05-13T09:49:03.274Z,88.83
2018-05-13T09:50:12.420Z,89.07
2018-05-13T09:51:21.311Z,90.19
2018-05-13T09:52:30.432Z,90.09
2018-05-13T09:53:39.627Z,89.03
2018-05-13T09:54:48.494Z,88.64
2018-05-13T09:55:57.360Z,88.93
2018-05-13T09:57:06.228Z,88.87
2018-05-13T09:58:15.376Z,88.78
2018-05-13T09:59:24.243Z,88.49
2018-05-13T10:00:33.108Z,89.07
2018-05-13T10:01:41.976Z,89.07
2018-05-13T10:02:51.119Z,89.26
2018-05-13T10:04:00.312Z,89.17
2018-05-13T10:05:09.776Z,89.55
2018-05-13T10:06:18.647Z,88.34
2018-05-13T10:07:27.510Z,88.63
2018-05-13T10:08:36.388Z,87.76
2018-05-13T10:09:45.243Z,88.05
2018-05-13T10:10:54.108Z,88.53
2018-05-13T10:12:02.971Z,87.66
2018-05-13T10:13:11.838Z,88.34
2018-05-13T10:14:20.709Z,87.66
2018-05-13T10:15:29.571Z,88.19
2018-05-13T10:16:38.588Z,87.9
2018-05-13T10:17:47.453Z,88.15
2018-05-13T10:18:56.597Z,88.05
2018-05-13T10:20:05.463Z,87.51
2018-05-13T10:21:14.609Z,87.23
2018-05-13T10:22:23.528Z,87.17
2018-05-13T10:23:32.946Z,86.65
2018-05-13T10:24:41.811Z,87.55
2018-05-13T10:25:50.677Z,85.62
2018-05-13T10:26:59.541Z,86.1
2018-05-13T10:28:08.738Z,85.62
2018-05-13T10:29:17.603Z,86.54
2018-05-13T10:30:26.468Z,86.05
2018-05-13T10:31:35.336Z,85.47
2018-05-13T10:32:44.478Z,85.37
2018-05-13T10:33:53.622Z,84.5
2018-05-13T10:35:02.767Z,83.53
2018-05-13T10:36:11.634Z,83.96
2018-05-13T10:37:20.501Z,82.32
2018-05-13T10:38:29.368Z,80.67
2018-05-13T10:39:38.235Z,81.35
2018-05-13T10:40:47.387Z,80.96
2018-05-13T10:41:56.253Z,82.22
2018-05-13T10:43:05.125Z,82.03
2018-05-13T10:44:13.986Z,81.25
2018-05-13T10:45:23.001Z,81.15
2018-05-13T10:46:31.867Z,81
2018-05-13T10:47:41.013Z,79.35
2018-05-13T10:48:50.437Z,80.32
2018-05-13T10:49:59.306Z,80.03
2018-05-13T10:51:08.273Z,80.46
2018-05-13T10:52:17.416Z,81.62
2018-05-13T10:53:26.283Z,80.65
2018-05-13T10:54:35.151Z,81.13
2018-05-13T10:55:44.017Z,79.3
2018-05-13T10:56:53.176Z,77.94
2018-05-13T10:58:02.603Z,77.75
2018-05-13T10:59:11.471Z,76.23
2018-05-13T11:00:20.338Z,75.94
2018-05-13T11:01:29.206Z,77.29
2018-05-13T11:02:38.123Z,76.52
2018-05-13T11:03:46.988Z,75.94
2018-05-13T11:04:55.857Z,75.36
2018-05-13T11:06:04.725Z,75.45
2018-05-13T11:07:13.596Z,76.81
2018-05-13T11:08:22.608Z,75.84
2018-05-13T11:09:31.476Z,75.55
2018-05-13T11:10:40.349Z,75.3
2018-05-13T11:11:49.227Z,74.43
2018-05-13T11:12:58.097Z,74.97
2018-05-13T11:14:06.970Z,75.65
2018-05-13T11:15:16.119Z,75.65
2018-05-13T11:16:24.988Z,75.26
2018-05-13T11:17:33.859Z,74.04
2018-05-13T11:18:42.727Z,74.43
2018-05-13T11:19:51.747Z,75.01
2018-05-13T11:21:00.619Z,74.33
2018-05-13T11:22:09.769Z,76.11
2018-05-13T11:23:18.639Z,74.56
2018-05-13T11:24:27.505Z,76.21
2018-05-13T11:25:36.372Z,75.1
2018-05-13T11:26:45.298Z,74.71
2018-05-13T11:27:54.502Z,74.71
2018-05-13T11:29:03.368Z,73.97
2018-05-13T11:30:12.243Z,74.37
2018-05-13T11:31:21.254Z,74.95
2018-05-13T11:32:30.124Z,73.68
2018-05-13T11:33:39.042Z,73.78
2018-05-13T11:34:47.910Z,73.58
2018-05-13T11:35:56.779Z,74.17
2018-05-13T11:37:05.645Z,75.04
2018-05-13T11:38:14.516Z,74.56
2018-05-13T11:39:23.383Z,73.2
2018-05-13T11:40:32.248Z,74.27
2018-05-13T11:41:41.116Z,73.97
2018-05-13T11:42:50.035Z,73.39
2018-05-13T11:43:59.193Z,73.78
2018-05-13T11:45:08.343Z,73.1
2018-05-13T11:46:17.494Z,72.91
2018-05-13T11:47:26.718Z,73.97
2018-05-13T11:48:35.508Z,72.91
2018-05-13T11:49:44.380Z,72.45
2018-05-13T11:50:53.250Z,72.94
2018-05-13T11:52:02.122Z,71.64
2018-05-13T11:53:10.993Z,72.94
2018-05-13T11:54:20.015Z,70.61
2018-05-13T11:55:28.885Z,71.68
2018-05-13T11:56:38.178Z,72.55
2018-05-13T11:57:47.047Z,70.71
2018-05-13T11:58:55.925Z,70.03
2018-05-13T12:00:05.071Z,70.32
2018-05-13T12:01:14.296Z,70.26
2018-05-13T12:02:23.233Z,70.36
2018-05-13T12:03:32.041Z,69.71
2018-05-13T12:04:41.203Z,70.29
2018-05-13T12:05:50.425Z,66.44
2018-05-13T12:06:59.578Z,64.49
2018-05-13T12:08:08.724Z,64.49
2018-05-13T12:09:17.874Z,64.04
2018-05-13T12:10:26.747Z,64.52
2018-05-13T12:11:35.769Z,63.94
2018-05-13T12:12:44.931Z,63.55
2018-05-13T12:13:54.083Z,62.8
2018-05-13T12:15:02.978Z,61.34
2018-05-13T12:16:12.115Z,61.83
2018-05-13T12:17:21.608Z,61.63
2018-05-13T12:18:30.482Z,63.39
2018-05-13T12:19:39.361Z,62.12
2018-05-13T12:20:48.233Z,61.08
2018-05-13T12:21:57.115Z,60.69
2018-05-13T12:23:06.138Z,61.18
2018-05-13T12:24:15.013Z,61.63
2018-05-13T12:25:24.174Z,63.02
2018-05-13T12:26:33.039Z,61.86
2018-05-13T12:27:41.919Z,60.82
2018-05-13T12:28:50.995Z,61.01
2018-05-13T12:30:00.460Z,60.91
2018-05-13T12:31:09.340Z,61.11
2018-05-13T12:32:18.216Z,61.11
2018-05-13T12:33:27.093Z,60.75
2018-05-13T12:34:35.967Z,61.92
2018-05-13T12:35:44.848Z,61.53
2018-05-13T12:36:53.723Z,60.46
2018-05-13T12:38:02.659Z,61.36
2018-05-13T12:39:11.481Z,60.88
2018-05-13T12:40:20.510Z,61.27
2018-05-13T12:41:29.389Z,60.58
2018-05-13T12:42:38.262Z,60.97
2018-05-13T12:43:47.142Z,60.78
2018-05-13T12:44:56.309Z,60.88
2018-05-13T12:46:05.286Z,61.92
2018-05-13T12:47:14.437Z,61.14
2018-05-13T12:48:23.315Z,61.43
2018-05-13T12:49:32.194Z,61.33
2018-05-13T12:50:41.347Z,61.69
2018-05-13T12:51:50.225Z,61.89
2018-05-13T12:52:59.101Z,61.6
2018-05-13T12:54:08.255Z,63.35
2018-05-13T12:55:17.129Z,63.02
2018-05-13T12:56:26.277Z,64.78
2018-05-13T12:57:35.150Z,63.97
2018-05-13T12:58:44.025Z,63.81
2018-05-13T12:59:52.901Z,63.42
2018-05-13T13:01:01.772Z,62.57
2018-05-13T13:02:10.654Z,64.32
2018-05-13T13:03:19.680Z,63.35
2018-05-13T13:04:28.556Z,62.08
2018-05-13T13:05:37.434Z,62.5
2018-05-13T13:06:46.313Z,63.06
2018-05-13T13:07:55.475Z,62.02
2018-05-13T13:09:04.418Z,59.97
2018-05-13T13:10:13.563Z,58.89
2018-05-13T13:11:22.439Z,59.16
2018-05-13T13:12:31.318Z,59.38
2018-05-13T13:13:40.758Z,59.19
2018-05-13T13:14:50.016Z,59.48
2018-05-13T13:15:58.891Z,59.19
2018-05-13T13:17:08.323Z,59.48
2018-05-13T13:18:17.479Z,58.99
2018-05-13T13:19:26.360Z,58.63
2018-05-13T13:20:35.665Z,57.36
2018-05-13T13:21:45.105Z,57.07
2018-05-13T13:22:53.983Z,57.1
2018-05-13T13:24:02.860Z,57.1
2018-05-13T13:25:11.738Z,56.02
2018-05-13T13:26:20.720Z,57.39
2018-05-13T13:27:29.599Z,55.86
2018-05-13T13:28:38.753Z,57.62
2018-05-13T13:29:47.635Z,57.62
2018-05-13T13:30:56.793Z,55.88
2018-05-13T13:32:06.284Z,55.88
2018-05-13T13:33:15.162Z,56.08
2018-05-13T13:34:24.324Z,56.25
2018-05-13T13:35:33.201Z,57.42
2018-05-13T13:36:42.157Z,57.13
2018-05-13T13:37:51.708Z,56.93
2018-05-13T13:39:00.586Z,55.98
2018-05-13T13:40:09.466Z,56.86
2018-05-13T13:41:18.346Z,56.27
2018-05-13T13:42:27.225Z,55.62
2018-05-13T13:43:36.204Z,55.71
2018-05-13T13:44:45.082Z,54.28
2018-05-13T13:45:53.963Z,54.64
2018-05-13T13:47:02.844Z,54.93
2018-05-13T13:48:11.723Z,54.44
2018-05-13T13:49:20.602Z,54.67
2018-05-13T13:50:29.483Z,54.17
2018-05-13T13:51:38.366Z,53.39
2018-05-13T13:52:47.811Z,53.33
2018-05-13T13:53:56.969Z,52.93
2018-05-13T13:55:06.250Z,51.95
2018-05-13T13:56:15.137Z,50.9
2018-05-13T13:57:24.019Z,51.78
2018-05-13T13:58:32.901Z,52.08
2018-05-13T13:59:41.788Z,50.71
2018-05-13T14:00:50.667Z,50.73
2018-05-13T14:01:59.823Z,50.32
2018-05-13T14:03:08.704Z,51
2018-05-13T14:04:17.586Z,51.29
2018-05-13T14:05:26.469Z,51.32
2018-05-13T14:06:35.552Z,51.32
2018-05-13T14:07:44.430Z,49.95
2018-05-13T14:08:53.320Z,48.77
2018-05-13T14:10:02.196Z,48.5
2018-05-13T14:11:11.079Z,49.38
2018-05-13T14:12:20.013Z,48.75
2018-05-13T14:13:28.893Z,49.73
2018-05-13T14:14:38.332Z,49.95
2018-05-13T14:15:47.216Z,48.9
2018-05-13T14:16:56.379Z,47.81
2018-05-13T14:18:05.411Z,47.13
2018-05-13T14:19:14.572Z,47.23
2018-05-13T14:20:23.537Z,47.89
2018-05-13T14:21:32.335Z,46.94
2018-05-13T14:22:41.222Z,47.13
2018-05-13T14:23:50.649Z,46.74
2018-05-13T14:24:59.463Z,47.03
2018-05-13T14:26:08.346Z,47.23
2018-05-13T14:27:17.227Z,47.23
2018-05-13T14:28:26.109Z,48.7
2018-05-13T14:29:35.043Z,48.09
2018-05-13T14:30:43.924Z,47.52
2018-05-13T14:31:52.805Z,46.94
2018-05-13T14:33:01.711Z,46.23
2018-05-13T14:34:10.568Z,46.13
2018-05-13T14:35:19.723Z,45.73
2018-05-13T14:36:28.611Z,46.67
2018-05-13T14:37:37.825Z,47.16
2018-05-13T14:38:46.707Z,46.97
2018-05-13T14:39:55.673Z,47.94
2018-05-13T14:41:05.028Z,48.11
2018-05-13T14:42:15.045Z,48.68
2018-05-13T14:43:24.703Z,49.95
2018-05-13T14:44:34.186Z,49.16
2018-05-13T14:45:44.108Z,49.19
2018-05-13T14:46:54.615Z,49.97
2018-05-13T14:48:04.988Z,50.07
2018-05-13T14:49:15.246Z,49.02
2018-05-13T14:50:26.690Z,49.6
2018-05-13T14:51:37.128Z,52.05